0GE5 weather

Mountain Airpark
Cleveland, Georgia, United States

Public forecast

Using degrees Fahrenheit for public forecast. Weather courtesy of forecast.io.

Closest aviation weather report (METAR) to Mountain Airpark

Closest report is Habersham County Airport, 8.6 nm (15.9 km) ESE. Retrieved 2019/11/17 04:35 UTC (10 minutes ago):

KAJR 170435Z AUTO 08005KT 5SM HZ CLR 06/01 A3008 RMK AO2 T00550014

Closest aviation forecast (TAF) to Mountain Airpark

Closest forecast is Athens Ben Epps Airport, 41.5 nm (76.9 km) SSE. Retrieved 2019-11-17 00:22 UTC (4 hours ago):

TAF KAHN 162320Z 1700/1724 05007KT P6SM SCT035 TEMPO 1700/1702 BKN035 FM171900 VRB03KT P6SM FEW250